CBG5 weather

Nanaimo (Regional General Hospital) Heliport
Nanaimo, British Columbia, Canada

Public forecast

Using degrees Celsius for public forecast. Weather courtesy of forecast.io.

Closest aviation weather report (METAR) to Nanaimo (Regional General Hospital) Heliport

Closest report is Nanaimo Airport, 8.8 nm (16.3 km) SSE. Retrieved 2020/04/07 22:00 UTC (3 minutes ago):

CYCD 072200Z 10004KT 320V130 30SM FEW052 12/00 A3024 RMK SC1 SC TR SLP244

Closest aviation forecast (TAF) to Nanaimo (Regional General Hospital) Heliport

Closest forecast is Nanaimo Airport, 8.8 nm (16.3 km) SSE. Retrieved 2020/04/07 18:00 UTC (4 hours ago):

TAF CYCD 071742Z 0718/0804 02008KT P6SM FEW040 SCT220 BECMG 0801/0803 VRB03KT RMK NXT FCST BY 080000Z